createdAt,value
2023-04-21T00:01:25.236Z,1003.10
2023-04-21T00:03:58.455Z,1003.10
2023-04-21T00:06:31.208Z,1003.08
2023-04-21T00:09:04.284Z,1003.06
2023-04-21T00:11:37.410Z,1003.06
2023-04-21T00:14:10.258Z,1003.05
2023-04-21T00:16:43.377Z,1003.03
2023-04-21T00:19:16.287Z,1003.01
2023-04-21T00:21:49.222Z,1002.99
2023-04-21T00:24:22.661Z,1002.97
2023-04-21T00:26:55.266Z,1002.95
2023-04-21T00:29:28.559Z,1002.94
2023-04-21T00:32:01.690Z,1002.93
2023-04-21T00:34:34.464Z,1002.90
2023-04-21T00:37:07.300Z,1002.89
2023-04-21T00:39:40.678Z,1002.87
2023-04-21T00:42:13.749Z,1002.86
2023-04-21T00:44:47.463Z,1002.84
2023-04-21T00:47:20.556Z,1002.84
2023-04-21T00:49:53.630Z,1002.85
2023-04-21T00:52:26.382Z,1002.84
2023-04-21T00:54:59.688Z,1002.83
2023-04-21T00:57:32.468Z,1002.83
2023-04-21T01:00:05.354Z,1002.83
2023-04-21T01:02:38.750Z,1002.82
2023-04-21T01:05:11.338Z,1002.81
2023-04-21T01:07:44.465Z,1002.80
2023-04-21T01:10:17.353Z,1002.79
2023-04-21T01:12:50.856Z,1002.80
2023-04-21T01:15:24.336Z,1002.79
2023-04-21T01:17:57.698Z,1002.80
2023-04-21T01:20:30.477Z,1002.81
2023-04-21T01:23:03.618Z,1002.80
2023-04-21T01:25:36.762Z,1002.78
2023-04-21T01:28:09.620Z,1002.77
2023-04-21T01:30:42.808Z,1002.75
2023-04-21T01:33:16.745Z,1002.75
2023-04-21T01:35:49.548Z,1002.74
2023-04-21T01:38:22.668Z,1002.74
2023-04-21T01:40:55.530Z,1002.75
2023-04-21T01:43:28.438Z,1002.75
2023-04-21T01:46:01.630Z,1002.75
2023-04-21T01:48:34.688Z,1002.76
2023-04-21T01:51:07.457Z,1002.76
2023-04-21T01:53:40.705Z,1002.77
2023-04-21T01:56:13.752Z,1002.75
2023-04-21T01:58:46.669Z,1002.77
2023-04-21T02:01:19.548Z,1002.76
2023-04-21T02:03:53.187Z,1002.75
2023-04-21T02:06:25.549Z,1002.75
2023-04-21T02:08:58.778Z,1002.75
2023-04-21T02:11:31.646Z,1002.75
2023-04-21T02:14:04.732Z,1002.74
2023-04-21T02:16:37.523Z,1002.73
2023-04-21T02:19:10.620Z,1002.74
2023-04-21T02:21:43.758Z,1002.74
2023-04-21T02:24:16.824Z,1002.74
2023-04-21T02:26:49.580Z,1002.73
2023-04-21T02:29:22.806Z,1002.72
2023-04-21T02:32:03.337Z,1002.72
2023-04-21T02:34:28.869Z,1002.74
2023-04-21T02:37:01.538Z,1002.77
2023-04-21T02:39:34.635Z,1002.77
2023-04-21T02:42:07.609Z,1002.80
2023-04-21T02:44:40.590Z,1002.81
2023-04-21T02:47:13.476Z,1002.84
2023-04-21T02:49:46.750Z,1002.86
2023-04-21T02:52:19.479Z,1002.88
2023-04-21T02:54:52.862Z,1002.89
2023-04-21T02:57:25.790Z,1002.89
2023-04-21T02:59:58.767Z,1002.92
2023-04-21T03:02:32.183Z,1002.94
2023-04-21T03:05:05.581Z,1002.95
2023-04-21T03:07:38.815Z,1002.96
2023-04-21T03:10:11.537Z,1002.96
2023-04-21T03:12:44.537Z,1002.96
2023-04-21T03:15:17.775Z,1002.94
2023-04-21T03:17:50.956Z,1002.95
2023-04-21T03:20:23.596Z,1002.94
2023-04-21T03:22:56.766Z,1002.94
2023-04-21T03:25:29.921Z,1002.93
2023-04-21T03:28:02.827Z,1002.90
2023-04-21T03:30:35.850Z,1002.88
2023-04-21T03:33:08.713Z,1002.86
2023-04-21T03:35:41.556Z,1002.86
2023-04-21T03:38:14.717Z,1002.87
2023-04-21T03:40:48.106Z,1002.87
2023-04-21T03:43:21.713Z,1002.86
2023-04-21T03:45:54.845Z,1002.85
2023-04-21T03:48:27.674Z,1002.82
2023-04-21T03:51:00.572Z,1002.81
2023-04-21T03:53:33.593Z,1002.80
2023-04-21T03:56:06.730Z,1002.80
2023-04-21T03:58:39.884Z,1002.78
2023-04-21T04:01:12.561Z,1002.78
2023-04-21T04:03:45.749Z,1002.77
2023-04-21T04:06:18.580Z,1002.76
2023-04-21T04:08:51.680Z,1002.77
2023-04-21T04:11:24.732Z,1002.78
2023-04-21T04:13:57.765Z,1002.78
2023-04-21T04:16:30.871Z,1002.78
2023-04-21T04:19:03.596Z,1002.78
2023-04-21T04:21:36.779Z,1002.79
2023-04-21T04:24:09.819Z,1002.80
2023-04-21T04:26:42.621Z,1002.81
2023-04-21T04:29:15.783Z,1002.81
2023-04-21T04:31:48.770Z,1002.80
2023-04-21T04:34:26.012Z,1002.79
2023-04-21T04:36:58.959Z,1002.79
2023-04-21T04:39:31.812Z,1002.80
2023-04-21T04:42:04.616Z,1002.79
2023-04-21T04:44:37.854Z,1002.78
2023-04-21T04:47:10.646Z,1002.78
2023-04-21T04:49:43.773Z,1002.81
2023-04-21T04:52:16.964Z,1002.83
2023-04-21T04:54:49.639Z,1002.84
2023-04-21T04:57:22.738Z,1002.84
2023-04-21T04:59:55.870Z,1002.85
2023-04-21T05:02:28.930Z,1002.85
2023-04-21T05:05:01.933Z,1002.85
2023-04-21T05:07:34.875Z,1002.84
2023-04-21T05:10:07.712Z,1002.81
2023-04-21T05:12:41.045Z,1002.80
2023-04-21T05:15:13.698Z,1002.79
2023-04-21T05:17:46.878Z,1002.82
2023-04-21T05:20:19.720Z,1002.84
2023-04-21T05:22:52.918Z,1002.88
2023-04-21T05:25:25.858Z,1002.91
2023-04-21T05:27:58.805Z,1002.92
2023-04-21T05:30:31.797Z,1002.95
2023-04-21T05:33:04.721Z,1002.98
2023-04-21T05:35:38.218Z,1003.00
2023-04-21T05:38:10.842Z,1003.00
2023-04-21T05:40:43.881Z,1003.01
2023-04-21T05:43:16.732Z,1003.00
2023-04-21T05:45:49.848Z,1003.00
2023-04-21T05:48:22.914Z,1003.00
2023-04-21T05:50:55.889Z,1003.00
2023-04-21T05:53:28.752Z,1002.96
2023-04-21T05:56:01.816Z,1002.97
2023-04-21T05:58:34.963Z,1002.96
2023-04-21T06:01:08.069Z,1002.96
2023-04-21T06:03:41.028Z,1002.95
2023-04-21T06:06:13.985Z,1002.96
2023-04-21T06:08:46.894Z,1002.95
2023-04-21T06:11:19.753Z,1002.95
2023-04-21T06:13:53.011Z,1002.96
2023-04-21T06:16:26.022Z,1002.99
2023-04-21T06:18:59.000Z,1003.03
2023-04-21T06:21:31.779Z,1003.07
2023-04-21T06:24:04.884Z,1003.10
2023-04-21T06:26:37.795Z,1003.12
2023-04-21T06:29:10.825Z,1003.14
2023-04-21T06:31:44.055Z,1003.16
2023-04-21T06:34:17.330Z,1003.17
2023-04-21T06:36:50.121Z,1003.20
2023-04-21T06:39:23.039Z,1003.22
2023-04-21T06:41:55.958Z,1003.24
2023-04-21T06:44:29.200Z,1003.27
2023-04-21T06:47:01.898Z,1003.29
2023-04-21T06:49:35.302Z,1003.30
2023-04-21T06:52:08.896Z,1003.31
2023-04-21T06:54:41.938Z,1003.31
2023-04-21T06:57:14.983Z,1003.29
2023-04-21T06:59:48.046Z,1003.26
2023-04-21T07:02:21.260Z,1003.24
2023-04-21T07:04:54.220Z,1003.23
2023-04-21T07:07:27.003Z,1003.25
2023-04-21T07:09:59.881Z,1003.27
2023-04-21T07:12:32.984Z,1003.29
2023-04-21T07:15:05.993Z,1003.31
2023-04-21T07:17:39.224Z,1003.31
2023-04-21T07:20:11.885Z,1003.30
2023-04-21T07:22:45.002Z,1003.28
2023-04-21T07:25:18.036Z,1003.27
2023-04-21T07:27:50.993Z,1003.27
2023-04-21T07:30:23.889Z,1003.27
2023-04-21T07:32:57.153Z,1003.27
2023-04-21T07:35:30.042Z,1003.26
2023-04-21T07:38:02.893Z,1003.27
2023-04-21T07:40:36.044Z,1003.23
2023-04-21T07:43:09.193Z,1003.22
2023-04-21T07:45:42.037Z,1003.21
2023-04-21T07:48:15.432Z,1003.22
2023-04-21T07:50:48.071Z,1003.21
2023-04-21T07:53:21.343Z,1003.22
2023-04-21T07:55:54.066Z,1003.22
2023-04-21T07:58:27.308Z,1003.22
2023-04-21T08:01:00.271Z,1003.24
2023-04-21T08:03:33.282Z,1003.27
2023-04-21T08:06:06.643Z,1003.28
2023-04-21T08:08:38.920Z,1003.27
2023-04-21T08:11:11.963Z,1003.25
2023-04-21T08:13:45.094Z,1003.25
2023-04-21T08:16:18.043Z,1003.23
2023-04-21T08:18:51.135Z,1003.23
2023-04-21T08:21:24.224Z,1003.23
2023-04-21T08:23:57.189Z,1003.21
2023-04-21T08:26:30.156Z,1003.20
2023-04-21T08:29:04.554Z,1003.17
2023-04-21T08:31:36.162Z,1003.14
2023-04-21T08:34:09.037Z,1003.10
2023-04-21T08:36:42.220Z,1003.07
2023-04-21T08:39:14.958Z,1003.03
2023-04-21T08:42:02.090Z,1003.01
2023-04-21T08:44:35.109Z,1002.98
2023-04-21T08:47:08.306Z,1002.97
2023-04-21T08:49:41.128Z,1002.96
2023-04-21T08:52:14.088Z,1002.96
2023-04-21T08:54:47.336Z,1002.94
2023-04-21T08:57:20.220Z,1002.94
2023-04-21T08:59:53.138Z,1002.94
2023-04-21T09:02:26.634Z,1002.94
2023-04-21T09:05:00.535Z,1002.94
2023-04-21T09:07:33.142Z,1002.94
2023-04-21T09:10:06.212Z,1002.94
2023-04-21T09:12:39.165Z,1002.92
2023-04-21T09:15:12.330Z,1002.93
2023-04-21T09:17:45.289Z,1002.92
2023-04-21T09:20:18.077Z,1002.90
2023-04-21T09:22:51.447Z,1002.86
2023-04-21T09:25:24.220Z,1002.83
2023-04-21T09:27:57.314Z,1002.80
2023-04-21T09:30:30.177Z,1002.77
2023-04-21T09:33:08.259Z,1002.75
2023-04-21T09:35:36.595Z,1002.72
2023-04-21T09:38:09.061Z,1002.70
2023-04-21T09:40:42.176Z,1002.66
2023-04-21T09:43:15.089Z,1002.63
2023-04-21T09:45:48.263Z,1002.58
2023-04-21T09:48:22.395Z,1002.55
2023-04-21T09:51:22.150Z,1002.53
2023-04-21T09:53:27.180Z,1002.50
2023-04-21T09:56:00.259Z,1002.49
2023-04-21T09:58:33.268Z,1002.47
2023-04-21T10:01:06.568Z,1002.46
2023-04-21T10:03:40.477Z,1002.45
2023-04-21T10:06:13.298Z,1002.45
2023-04-21T10:08:46.309Z,1002.44
2023-04-21T10:11:19.119Z,1002.41
2023-04-21T10:13:52.412Z,1002.38
2023-04-21T10:16:25.475Z,1002.36
2023-04-21T10:18:58.366Z,1002.33
2023-04-21T10:21:31.322Z,1002.30
2023-04-21T10:24:04.302Z,1002.27
2023-04-21T10:26:37.155Z,1002.24
2023-04-21T10:29:10.141Z,1002.23
2023-04-21T10:31:43.541Z,1002.22
2023-04-21T10:34:16.150Z,1002.20
2023-04-21T10:36:49.367Z,1002.16
2023-04-21T10:39:22.140Z,1002.13
2023-04-21T10:41:55.499Z,1002.11
2023-04-21T10:44:28.487Z,1002.10
2023-04-21T10:47:01.313Z,1002.08
2023-04-21T10:49:34.306Z,1002.04
2023-04-21T10:52:07.250Z,1002.01
2023-04-21T10:54:40.475Z,1001.97
2023-04-21T10:57:13.426Z,1001.94
2023-04-21T10:59:46.602Z,1001.92
2023-04-21T11:02:19.389Z,1001.88
2023-04-21T11:04:53.017Z,1001.84
2023-04-21T11:07:26.296Z,1001.81
2023-04-21T11:09:59.359Z,1001.76
2023-04-21T11:12:32.314Z,1001.71
2023-04-21T11:15:09.053Z,1001.65
2023-04-21T11:17:42.613Z,1001.59
2023-04-21T11:20:15.327Z,1001.55
2023-04-21T11:22:48.401Z,1001.50
2023-04-21T11:25:21.404Z,1001.45
2023-04-21T11:27:54.349Z,1001.42
2023-04-21T11:30:27.225Z,1001.40
2023-04-21T11:33:00.576Z,1001.36
2023-04-21T11:35:47.439Z,1001.33
2023-04-21T11:38:20.321Z,1001.30
2023-04-21T11:40:53.427Z,1001.29
2023-04-21T11:43:26.542Z,1001.28
2023-04-21T11:45:59.438Z,1001.24
2023-04-21T11:48:32.357Z,1001.21
2023-04-21T11:51:05.315Z,1001.18
2023-04-21T11:53:38.347Z,1001.16
2023-04-21T11:56:17.548Z,1001.13
2023-04-21T11:58:50.617Z,1001.08
2023-04-21T12:01:23.268Z,1001.04
2023-04-21T12:03:56.626Z,1001.01
2023-04-21T12:06:29.298Z,1000.99
2023-04-21T12:09:02.583Z,1000.96
2023-04-21T12:11:35.605Z,1000.92
2023-04-21T12:14:08.492Z,1000.91
2023-04-21T12:16:41.697Z,1000.88
2023-04-21T12:19:14.643Z,1000.85
2023-04-21T12:21:47.461Z,1000.83
2023-04-21T12:24:20.587Z,1000.82
2023-04-21T12:26:53.467Z,1000.84
2023-04-21T12:29:26.322Z,1000.83
2023-04-21T12:32:13.360Z,1000.82
2023-04-21T12:34:46.477Z,1000.83
2023-04-21T12:37:19.524Z,1000.84
2023-04-21T12:39:52.495Z,1000.83
2023-04-21T12:42:25.351Z,1000.83
2023-04-21T12:44:58.488Z,1000.81
2023-04-21T12:47:31.390Z,1000.80
2023-04-21T12:50:04.692Z,1000.78
2023-04-21T12:52:37.524Z,1000.77
2023-04-21T12:55:10.369Z,1000.73
2023-04-21T12:57:43.754Z,1000.69
2023-04-21T13:00:16.718Z,1000.68
2023-04-21T13:02:49.513Z,1000.65
2023-04-21T13:05:22.531Z,1000.61
2023-04-21T13:07:55.803Z,1000.57
2023-04-21T13:10:28.415Z,1000.54
2023-04-21T13:13:01.686Z,1000.52
2023-04-21T13:15:34.608Z,1000.51
2023-04-21T13:18:07.530Z,1000.49
2023-04-21T13:20:40.556Z,1000.46
2023-04-21T13:23:13.572Z,1000.43
2023-04-21T13:25:46.552Z,1000.41
2023-04-21T13:28:19.572Z,1000.41
2023-04-21T13:30:52.722Z,1000.41
2023-04-21T13:33:25.437Z,1000.42
2023-04-21T13:35:58.430Z,1000.41
2023-04-21T13:38:31.436Z,1000.38
2023-04-21T13:41:04.706Z,1000.36
2023-04-21T13:43:37.914Z,1000.36
2023-04-21T13:46:11.495Z,1000.33
2023-04-21T13:48:50.603Z,1000.32
2023-04-21T13:51:23.647Z,1000.29
2023-04-21T13:54:10.402Z,1000.26
2023-04-21T13:56:43.593Z,1000.21
2023-04-21T13:59:16.593Z,1000.17
2023-04-21T14:01:49.641Z,1000.12
2023-04-21T14:04:22.976Z,1000.08
2023-04-21T14:06:55.645Z,1000.04
2023-04-21T14:09:28.483Z,1000.02
2023-04-21T14:12:01.559Z,999.99
2023-04-21T14:14:39.225Z,999.96
2023-04-21T14:17:10.646Z,999.92
2023-04-21T14:19:43.519Z,999.90
2023-04-21T14:22:16.488Z,999.89
2023-04-21T14:24:49.709Z,999.85
2023-04-21T14:27:22.567Z,999.82
2023-04-21T14:29:55.545Z,999.77
2023-04-21T14:32:28.663Z,999.73
2023-04-21T14:35:01.870Z,999.68
2023-04-21T14:37:34.545Z,999.61
2023-04-21T14:40:09.221Z,999.58
2023-04-21T14:42:42.947Z,999.54
2023-04-21T14:45:15.633Z,999.50
2023-04-21T14:47:48.723Z,999.45
2023-04-21T14:50:21.749Z,999.41
2023-04-21T14:52:54.725Z,999.36
2023-04-21T14:55:27.734Z,999.33
2023-04-21T14:58:00.764Z,999.30
2023-04-21T15:00:33.764Z,999.26
2023-04-21T15:03:07.062Z,999.23
2023-04-21T15:05:39.856Z,999.20
2023-04-21T15:08:12.945Z,999.16
2023-04-21T15:10:45.824Z,999.12
2023-04-21T15:13:18.919Z,999.08
2023-04-21T15:15:51.645Z,999.06
2023-04-21T15:18:24.720Z,999.04
2023-04-21T15:20:57.681Z,999.01
2023-04-21T15:23:30.605Z,998.99
2023-04-21T15:26:03.598Z,998.98
2023-04-21T15:28:36.647Z,998.96
2023-04-21T15:31:10.345Z,998.92
2023-04-21T15:33:42.838Z,998.88
2023-04-21T15:36:15.769Z,998.83
2023-04-21T15:38:48.815Z,998.79
2023-04-21T15:41:21.741Z,998.75
2023-04-21T15:43:54.802Z,998.72
2023-04-21T15:46:27.833Z,998.70
2023-04-21T15:49:01.087Z,998.68
2023-04-21T15:51:33.635Z,998.68
2023-04-21T15:54:06.862Z,998.66
2023-04-21T15:56:39.612Z,998.64
2023-04-21T15:59:16.782Z,998.63
2023-04-21T16:01:49.673Z,998.62
2023-04-21T16:04:22.991Z,998.62
2023-04-21T16:06:55.887Z,998.62
2023-04-21T16:09:28.788Z,998.60
2023-04-21T16:12:01.914Z,998.59
2023-04-21T16:14:50.793Z,998.58
2023-04-21T16:17:07.863Z,998.56
2023-04-21T16:19:40.726Z,998.55
2023-04-21T16:22:13.690Z,998.54
2023-04-21T16:24:47.540Z,998.53
2023-04-21T16:27:20.911Z,998.54
2023-04-21T16:29:53.890Z,998.53
2023-04-21T16:32:27.066Z,998.51
2023-04-21T16:35:00.190Z,998.51
2023-04-21T16:37:33.094Z,998.49
2023-04-21T16:40:06.088Z,998.49
2023-04-21T16:42:38.687Z,998.51
2023-04-21T16:45:12.023Z,998.53
2023-04-21T16:47:45.100Z,998.56
2023-04-21T16:50:17.852Z,998.58
2023-04-21T16:52:51.104Z,998.59
2023-04-21T16:55:24.077Z,998.66
2023-04-21T16:57:57.130Z,998.78
2023-04-21T17:00:30.115Z,998.88
2023-04-21T17:03:03.161Z,998.97
2023-04-21T17:05:37.671Z,999.07
2023-04-21T17:08:12.536Z,999.17
2023-04-21T17:10:45.867Z,999.23
2023-04-21T17:13:18.913Z,999.30
2023-04-21T17:15:52.007Z,999.33
2023-04-21T17:18:24.890Z,999.35
2023-04-21T17:20:58.106Z,999.36
2023-04-21T17:23:30.779Z,999.34
2023-04-21T17:26:04.038Z,999.24
2023-04-21T17:28:36.748Z,999.12
2023-04-21T17:31:15.831Z,998.97
2023-04-21T17:33:42.913Z,998.83
2023-04-21T17:36:15.969Z,998.73
2023-04-21T17:38:48.936Z,998.64
2023-04-21T17:41:21.933Z,998.59
2023-04-21T17:43:54.947Z,998.56
2023-04-21T17:46:28.112Z,998.54
2023-04-21T17:49:00.798Z,998.52
2023-04-21T17:51:33.833Z,998.55
2023-04-21T17:54:06.797Z,998.58
2023-04-21T17:56:39.797Z,998.60
2023-04-21T17:59:13.117Z,998.62
2023-04-21T18:01:45.909Z,998.61
2023-04-21T18:04:19.319Z,998.62
2023-04-21T18:06:52.030Z,998.64
2023-04-21T18:09:30.905Z,998.64
2023-04-21T18:12:03.822Z,998.67
2023-04-21T18:14:37.379Z,998.68
2023-04-21T18:17:10.350Z,998.68
2023-04-21T18:19:44.103Z,998.68
2023-04-21T18:22:17.199Z,998.67
2023-04-21T18:24:49.986Z,998.62
2023-04-21T18:27:23.021Z,998.58
2023-04-21T18:29:55.996Z,998.54
2023-04-21T18:32:29.114Z,998.49
2023-04-21T18:35:02.272Z,998.45
2023-04-21T18:37:34.989Z,998.46
2023-04-21T18:40:11.680Z,998.45
2023-04-21T18:42:44.909Z,998.46
2023-04-21T18:45:20.768Z,998.48
2023-04-21T18:47:54.299Z,998.51
2023-04-21T18:50:27.209Z,998.53
2023-04-21T18:53:00.107Z,998.56
2023-04-21T18:55:33.219Z,998.59
2023-04-21T18:58:06.392Z,998.62
2023-04-21T19:00:40.169Z,998.67
2023-04-21T19:03:13.362Z,998.74
2023-04-21T19:05:46.184Z,998.79
2023-04-21T19:08:30.049Z,998.83
2023-04-21T19:10:54.825Z,998.88
2023-04-21T19:13:28.311Z,998.92
2023-04-21T19:16:02.524Z,998.95
2023-04-21T19:18:36.365Z,999.02
2023-04-21T19:21:09.398Z,999.11
2023-04-21T19:23:42.941Z,999.13
2023-04-21T19:26:16.047Z,999.15
2023-04-21T19:28:49.448Z,999.22
2023-04-21T19:31:24.343Z,999.26
2023-04-21T19:33:57.364Z,999.29
2023-04-21T19:36:30.176Z,999.32
2023-04-21T19:39:02.943Z,999.32
2023-04-21T19:41:36.081Z,999.33
2023-04-21T19:44:09.098Z,999.33
2023-04-21T19:46:42.266Z,999.33
2023-04-21T19:49:15.469Z,999.32
2023-04-21T19:51:48.256Z,999.32
2023-04-21T19:54:20.965Z,999.34
2023-04-21T19:56:54.477Z,999.36
2023-04-21T19:59:28.365Z,999.39
2023-04-21T20:02:01.248Z,999.42
2023-04-21T20:04:34.676Z,999.42
2023-04-21T20:07:08.269Z,999.43
2023-04-21T20:09:42.438Z,999.43
2023-04-21T20:12:15.109Z,999.43
2023-04-21T20:14:48.283Z,999.45
2023-04-21T20:17:21.278Z,999.44
2023-04-21T20:19:54.030Z,999.42
2023-04-21T20:22:27.439Z,999.42
2023-04-21T20:25:00.464Z,999.41
2023-04-21T20:27:34.426Z,999.41
2023-04-21T20:30:07.303Z,999.38
2023-04-21T20:32:54.323Z,999.37
2023-04-21T20:35:27.420Z,999.36
2023-04-21T20:38:00.429Z,999.35
2023-04-21T20:40:35.536Z,999.31
2023-04-21T20:43:06.474Z,999.30
2023-04-21T20:45:39.388Z,999.28
2023-04-21T20:48:12.240Z,999.28
2023-04-21T20:50:46.395Z,999.27
2023-04-21T20:53:18.268Z,999.28
2023-04-21T20:55:51.112Z,999.27
2023-04-21T20:58:24.251Z,999.27
2023-04-21T21:00:57.278Z,999.27
2023-04-21T21:03:30.316Z,999.29
2023-04-21T21:06:03.131Z,999.33
2023-04-21T21:08:36.406Z,999.35
2023-04-21T21:11:09.090Z,999.37
2023-04-21T21:13:42.427Z,999.40
2023-04-21T21:16:15.271Z,999.42
2023-04-21T21:18:48.368Z,999.41
2023-04-21T21:21:21.656Z,999.41
2023-04-21T21:23:55.376Z,999.42
2023-04-21T21:26:28.534Z,999.41
2023-04-21T21:29:02.643Z,999.43
2023-04-21T21:31:36.500Z,999.43
2023-04-21T21:34:09.435Z,999.43
2023-04-21T21:36:42.434Z,999.43
2023-04-21T21:39:15.470Z,999.43
2023-04-21T21:41:48.422Z,999.42
2023-04-21T21:44:21.582Z,999.42
2023-04-21T21:46:56.412Z,999.43
2023-04-21T21:49:29.477Z,999.44
2023-04-21T21:52:02.686Z,999.45
2023-04-21T21:54:36.579Z,999.45
2023-04-21T21:57:09.183Z,999.44
2023-04-21T21:59:42.502Z,999.43
2023-04-21T22:02:15.296Z,999.42
2023-04-21T22:04:48.599Z,999.42
2023-04-21T22:07:21.276Z,999.43
2023-04-21T22:09:57.355Z,999.43
2023-04-21T22:12:30.626Z,999.44
2023-04-21T22:15:04.168Z,999.44
2023-04-21T22:17:37.527Z,999.45
2023-04-21T22:20:10.499Z,999.46
2023-04-21T22:22:43.225Z,999.47
2023-04-21T22:25:16.554Z,999.47
2023-04-21T22:27:49.470Z,999.48
2023-04-21T22:30:26.328Z,999.48
2023-04-21T22:32:59.661Z,999.50
2023-04-21T22:35:32.469Z,999.54
2023-04-21T22:38:05.357Z,999.55
2023-04-21T22:40:38.240Z,999.54
2023-04-21T22:43:11.495Z,999.51
2023-04-21T22:45:44.347Z,999.51
2023-04-21T22:48:17.591Z,999.52
2023-04-21T22:50:50.625Z,999.52
2023-04-21T22:53:23.613Z,999.54
2023-04-21T22:55:56.530Z,999.57
2023-04-21T22:58:29.627Z,999.58
2023-04-21T23:01:02.853Z,999.58
2023-04-21T23:03:40.684Z,999.58
2023-04-21T23:06:18.141Z,999.57
2023-04-21T23:08:51.267Z,999.56
2023-04-21T23:11:24.610Z,999.54
2023-04-21T23:13:57.272Z,999.54
2023-04-21T23:16:30.636Z,999.50
2023-04-21T23:19:03.564Z,999.48
2023-04-21T23:21:36.588Z,999.47
2023-04-21T23:24:09.613Z,999.46
2023-04-21T23:26:42.631Z,999.44
2023-04-21T23:29:15.725Z,999.42
2023-04-21T23:31:49.635Z,999.41
2023-04-21T23:34:22.598Z,999.41
2023-04-21T23:36:55.317Z,999.41
2023-04-21T23:39:28.561Z,999.43
2023-04-21T23:42:01.316Z,999.46
2023-04-21T23:44:40.437Z,999.47
2023-04-21T23:47:13.630Z,999.45
2023-04-21T23:49:46.683Z,999.43
2023-04-21T23:52:19.420Z,999.42
2023-04-21T23:54:52.477Z,999.42
2023-04-21T23:57:25.534Z,999.42
2023-04-21T23:59:58.334Z,999.41
